createdAt,value
2022-08-26T00:01:58.142Z,64.24
2022-08-26T00:04:30.192Z,63.82
2022-08-26T00:06:58.010Z,63.08
2022-08-26T00:09:26.186Z,63.13
2022-08-26T00:11:53.970Z,63.58
2022-08-26T00:14:21.970Z,63.62
2022-08-26T00:16:52.140Z,64.59
2022-08-26T00:19:22.867Z,64.75
2022-08-26T00:21:51.274Z,64.78
2022-08-26T00:24:19.627Z,64.44
2022-08-26T00:26:47.278Z,66.02
2022-08-26T00:29:15.152Z,65.35
2022-08-26T00:31:42.992Z,65.18
2022-08-26T00:34:19.291Z,64.75
2022-08-26T00:36:49.211Z,64.55
2022-08-26T00:39:30.294Z,63.96
2022-08-26T00:41:58.051Z,63.99
2022-08-26T00:44:25.669Z,64.39
2022-08-26T00:46:56.232Z,65.80
2022-08-26T00:49:26.578Z,65.78
2022-08-26T00:52:00.896Z,65.40
2022-08-26T00:54:29.120Z,65.54
2022-08-26T00:57:04.208Z,65.18
2022-08-26T00:59:38.923Z,64.21
2022-08-26T01:02:21.338Z,63.56
2022-08-26T01:04:56.201Z,62.58
2022-08-26T01:07:24.815Z,63.99
2022-08-26T01:09:52.437Z,64.20
2022-08-26T01:12:22.017Z,63.87
2022-08-26T01:14:52.676Z,65.27
2022-08-26T01:17:20.265Z,65.45
2022-08-26T01:19:48.944Z,66.19
2022-08-26T01:22:19.924Z,66.41
2022-08-26T01:24:52.493Z,66.87
2022-08-26T01:27:24.365Z,67.66
2022-08-26T01:29:54.746Z,68.08
2022-08-26T01:32:22.550Z,67.55
2022-08-26T01:34:51.048Z,67.78
2022-08-26T01:37:19.882Z,67.39
2022-08-26T01:39:51.906Z,67.09
2022-08-26T01:42:20.572Z,67.52
2022-08-26T01:44:49.528Z,66.62
2022-08-26T01:47:17.624Z,66.48
2022-08-26T01:49:45.707Z,65.33
2022-08-26T01:52:13.861Z,64.71
2022-08-26T01:54:41.653Z,64.51
2022-08-26T01:57:16.224Z,64.55
2022-08-26T01:59:43.988Z,65.11
2022-08-26T02:02:12.223Z,65.10
2022-08-26T02:04:41.345Z,66.71
2022-08-26T02:07:10.370Z,65.68
2022-08-26T02:09:41.401Z,66.37
2022-08-26T02:12:09.795Z,66.17
2022-08-26T02:14:43.630Z,66.35
2022-08-26T02:17:15.960Z,64.98
2022-08-26T02:19:46.734Z,64.47
2022-08-26T02:22:16.310Z,65.53
2022-08-26T02:24:49.541Z,66.64
2022-08-26T02:27:17.577Z,67.02
2022-08-26T02:29:47.828Z,67.05
2022-08-26T02:32:18.644Z,67.65
2022-08-26T02:34:47.184Z,68.63
2022-08-26T02:37:15.230Z,68.62
2022-08-26T02:39:45.481Z,67.98
2022-08-26T02:42:18.408Z,67.98
2022-08-26T02:44:48.459Z,67.75
2022-08-26T02:47:16.447Z,66.58
2022-08-26T02:49:44.543Z,67.52
2022-08-26T02:52:14.964Z,67.44
2022-08-26T02:54:42.621Z,67.80
2022-08-26T02:57:12.259Z,67.79
2022-08-26T02:59:40.334Z,66.53
2022-08-26T03:02:10.749Z,65.60
2022-08-26T03:04:39.514Z,67.67
2022-08-26T03:07:07.542Z,67.53
2022-08-26T03:09:36.154Z,69.41
2022-08-26T03:12:04.812Z,69.00
2022-08-26T03:14:32.909Z,69.74
2022-08-26T03:17:01.179Z,69.24
2022-08-26T03:19:32.122Z,70.25
2022-08-26T03:22:02.934Z,72.30
2022-08-26T03:24:30.749Z,71.94
2022-08-26T03:26:59.914Z,73.02
2022-08-26T03:29:44.918Z,72.83
2022-08-26T03:32:17.570Z,71.65
2022-08-26T03:34:47.103Z,71.10
2022-08-26T03:37:14.787Z,70.79
2022-08-26T03:39:42.467Z,70.72
2022-08-26T03:42:12.740Z,71.18
2022-08-26T03:44:42.124Z,72.56
2022-08-26T03:47:09.878Z,72.42
2022-08-26T03:49:37.998Z,72.97
2022-08-26T03:52:07.663Z,72.99
2022-08-26T03:54:36.113Z,71.22
2022-08-26T03:57:04.008Z,70.43
2022-08-26T03:59:32.974Z,70.94
2022-08-26T04:02:01.683Z,71.55
2022-08-26T04:04:33.401Z,71.47
2022-08-26T04:07:01.239Z,71.72
2022-08-26T04:09:30.532Z,72.05
2022-08-26T04:12:04.316Z,70.50
2022-08-26T04:14:35.399Z,70.51
2022-08-26T04:17:07.031Z,71.61
2022-08-26T04:19:39.550Z,72.61
2022-08-26T04:22:07.718Z,71.87
2022-08-26T04:24:39.310Z,73.25
2022-08-26T04:27:08.162Z,73.52
2022-08-26T04:29:35.826Z,72.69
2022-08-26T04:32:04.195Z,72.74
2022-08-26T04:34:32.874Z,72.12
2022-08-26T04:37:01.430Z,69.98
2022-08-26T04:39:29.121Z,70.16
2022-08-26T04:41:58.261Z,70.29
2022-08-26T04:44:30.120Z,70.67
2022-08-26T04:46:58.469Z,70.52
2022-08-26T04:49:27.660Z,72.10
2022-08-26T04:51:56.195Z,73.25
2022-08-26T04:54:26.789Z,72.90
2022-08-26T04:56:55.097Z,70.55
2022-08-26T04:59:28.059Z,70.46
2022-08-26T05:01:59.584Z,70.43
2022-08-26T05:04:45.322Z,71.31
2022-08-26T05:07:13.517Z,72.02
2022-08-26T05:09:41.807Z,72.26
2022-08-26T05:12:09.824Z,72.09
2022-08-26T05:14:48.418Z,73.11
2022-08-26T05:17:16.105Z,72.64
2022-08-26T05:19:47.305Z,70.89
2022-08-26T05:22:16.937Z,72.46
2022-08-26T05:24:57.302Z,71.85
2022-08-26T05:27:27.296Z,72.55
2022-08-26T05:29:58.790Z,71.81
2022-08-26T05:32:26.559Z,71.32
2022-08-26T05:34:55.582Z,71.01
2022-08-26T05:37:26.526Z,71.53
2022-08-26T05:39:54.532Z,71.56
2022-08-26T05:42:22.289Z,70.43
2022-08-26T05:44:55.854Z,68.74
2022-08-26T05:47:25.658Z,68.27
2022-08-26T05:49:53.708Z,69.69
2022-08-26T05:52:24.643Z,70.13
2022-08-26T05:54:53.885Z,69.26
2022-08-26T05:57:25.857Z,69.67
2022-08-26T05:59:57.788Z,70.08
2022-08-26T06:02:29.451Z,69.84
2022-08-26T06:04:57.106Z,69.27
2022-08-26T06:07:45.368Z,69.24
2022-08-26T06:10:32.478Z,69.81
2022-08-26T06:13:04.610Z,68.45
2022-08-26T06:15:44.836Z,67.01
2022-08-26T06:18:15.089Z,68.24
2022-08-26T06:20:57.113Z,67.01
2022-08-26T06:23:42.409Z,65.73
2022-08-26T06:26:11.451Z,64.22
2022-08-26T06:28:39.080Z,62.91
2022-08-26T06:31:07.070Z,62.46
2022-08-26T06:33:38.362Z,62.41
2022-08-26T06:36:07.395Z,61.74
2022-08-26T06:38:36.499Z,61.91
2022-08-26T06:41:04.497Z,63.25
2022-08-26T06:43:32.275Z,65.16
2022-08-26T06:46:01.840Z,65.34
2022-08-26T06:48:33.444Z,66.54
2022-08-26T06:51:10.420Z,66.72
2022-08-26T06:53:38.530Z,65.66
2022-08-26T06:56:10.681Z,65.38
2022-08-26T06:58:39.934Z,65.12
2022-08-26T07:01:16.077Z,63.00
2022-08-26T07:03:46.625Z,62.21
2022-08-26T07:06:16.236Z,61.69
2022-08-26T07:08:44.651Z,60.64
2022-08-26T07:11:14.411Z,60.09
2022-08-26T07:13:42.618Z,60.60
2022-08-26T07:16:13.675Z,62.38
2022-08-26T07:18:44.783Z,63.05
2022-08-26T07:21:13.671Z,63.44
2022-08-26T07:23:43.466Z,63.14
2022-08-26T07:26:16.264Z,60.72
2022-08-26T07:28:50.537Z,60.54
2022-08-26T07:31:22.475Z,59.83
2022-08-26T07:33:50.279Z,59.18
2022-08-26T07:36:18.872Z,58.37
2022-08-26T07:38:49.161Z,59.12
2022-08-26T07:41:19.108Z,59.20
2022-08-26T07:43:47.520Z,59.28
2022-08-26T07:46:20.873Z,58.29
2022-08-26T07:48:55.398Z,57.86
2022-08-26T07:51:23.789Z,57.06
2022-08-26T07:53:55.599Z,56.14
2022-08-26T07:56:23.618Z,55.54
2022-08-26T07:58:55.210Z,54.43
2022-08-26T08:01:23.819Z,55.30
2022-08-26T08:03:52.208Z,54.97
2022-08-26T08:06:20.305Z,56.01
2022-08-26T08:08:51.670Z,56.18
2022-08-26T08:11:21.650Z,56.29
2022-08-26T08:13:49.941Z,56.01
2022-08-26T08:16:24.351Z,55.48
2022-08-26T08:18:52.221Z,55.26
2022-08-26T08:21:21.610Z,55.32
2022-08-26T08:23:55.406Z,55.25
2022-08-26T08:26:25.254Z,55.35
2022-08-26T08:28:54.449Z,55.31
2022-08-26T08:31:52.394Z,55.30
2022-08-26T08:34:15.039Z,55.46
2022-08-26T08:36:42.970Z,55.29
2022-08-26T08:39:11.684Z,55.65
2022-08-26T08:41:45.663Z,55.37
2022-08-26T08:44:18.396Z,56.15
2022-08-26T08:46:46.161Z,54.69
2022-08-26T08:49:13.891Z,54.88
2022-08-26T08:51:43.093Z,55.98
2022-08-26T08:54:11.473Z,55.69
2022-08-26T08:56:40.758Z,56.84
2022-08-26T08:59:14.343Z,56.97
2022-08-26T09:01:45.424Z,54.99
2022-08-26T09:04:20.591Z,54.35
2022-08-26T09:06:48.479Z,53.48
2022-08-26T09:09:17.963Z,53.40
2022-08-26T09:11:45.662Z,52.83
2022-08-26T09:14:15.444Z,53.07
2022-08-26T09:16:47.473Z,52.21
2022-08-26T09:19:19.039Z,51.50
2022-08-26T09:21:47.664Z,52.79
2022-08-26T09:24:28.857Z,52.49
2022-08-26T09:26:59.123Z,52.87
2022-08-26T09:29:32.147Z,52.00
2022-08-26T09:32:16.061Z,51.75
2022-08-26T09:34:54.850Z,53.65
2022-08-26T09:37:33.899Z,53.54
2022-08-26T09:40:12.866Z,53.96
2022-08-26T09:42:42.471Z,53.64
2022-08-26T09:45:14.064Z,53.04
2022-08-26T09:47:42.602Z,53.15
2022-08-26T09:50:13.004Z,53.38
2022-08-26T09:52:42.762Z,53.74
2022-08-26T09:55:14.817Z,52.84
2022-08-26T09:57:47.757Z,52.57
2022-08-26T10:00:30.492Z,53.10
2022-08-26T10:02:58.890Z,52.21
2022-08-26T10:05:33.982Z,52.01
2022-08-26T10:08:02.199Z,53.31
2022-08-26T10:10:33.740Z,53.10
2022-08-26T10:13:03.657Z,54.06
2022-08-26T10:15:34.884Z,53.62
2022-08-26T10:18:05.832Z,53.35
2022-08-26T10:20:34.186Z,53.19
2022-08-26T10:23:04.072Z,53.61
2022-08-26T10:25:33.605Z,54.02
2022-08-26T10:28:02.819Z,54.61
2022-08-26T10:30:31.647Z,53.60
2022-08-26T10:33:02.333Z,53.45
2022-08-26T10:35:32.983Z,50.67
2022-08-26T10:38:05.985Z,49.95
2022-08-26T10:40:37.044Z,50.66
2022-08-26T10:43:11.301Z,50.17
2022-08-26T10:45:41.514Z,49.78
2022-08-26T10:48:11.287Z,49.15
2022-08-26T10:50:39.838Z,49.92
2022-08-26T10:53:09.690Z,49.09
2022-08-26T10:55:40.381Z,48.15
2022-08-26T10:58:16.541Z,48.04
2022-08-26T11:01:13.483Z,48.00
2022-08-26T11:03:48.374Z,48.56
2022-08-26T11:06:24.757Z,49.24
2022-08-26T11:08:57.042Z,48.47
2022-08-26T11:11:39.633Z,48.47
2022-08-26T11:14:07.460Z,47.78
2022-08-26T11:16:43.304Z,47.32
2022-08-26T11:19:14.470Z,46.36
2022-08-26T11:21:50.693Z,45.76
2022-08-26T11:24:37.429Z,45.24
2022-08-26T11:27:07.715Z,43.83
2022-08-26T11:29:56.301Z,43.48
2022-08-26T11:32:25.914Z,43.88
2022-08-26T11:34:59.278Z,44.18
2022-08-26T11:37:32.377Z,44.76
2022-08-26T11:40:00.629Z,44.02
2022-08-26T11:42:34.704Z,43.97
2022-08-26T11:45:05.721Z,44.15
2022-08-26T11:47:34.162Z,44.70
2022-08-26T11:50:23.556Z,43.92
2022-08-26T11:52:56.447Z,43.73
2022-08-26T11:55:26.445Z,42.01
2022-08-26T11:57:56.024Z,42.42
2022-08-26T12:00:33.320Z,41.58
2022-08-26T12:03:05.301Z,41.32
2022-08-26T12:05:37.581Z,41.12
2022-08-26T12:08:09.803Z,41.73
2022-08-26T12:10:39.798Z,41.20
2022-08-26T12:13:08.114Z,40.71
2022-08-26T12:15:36.174Z,40.10
2022-08-26T12:18:20.787Z,40.48
2022-08-26T12:20:59.365Z,42.43
2022-08-26T12:23:29.491Z,41.68
2022-08-26T12:26:03.825Z,42.30
2022-08-26T12:28:31.770Z,43.67
2022-08-26T12:30:59.985Z,43.48
2022-08-26T12:33:28.689Z,43.84
2022-08-26T12:35:57.029Z,43.77
2022-08-26T12:38:24.961Z,41.08
2022-08-26T12:40:54.850Z,41.42
2022-08-26T12:43:42.307Z,41.68
2022-08-26T12:46:11.492Z,42.15
2022-08-26T12:48:39.947Z,43.45
2022-08-26T12:51:07.812Z,44.95
2022-08-26T12:53:36.216Z,45.03
2022-08-26T12:56:09.278Z,45.02
2022-08-26T12:58:37.408Z,45.89
2022-08-26T13:01:24.626Z,46.33
2022-08-26T13:03:52.555Z,45.82
2022-08-26T13:06:30.174Z,46.25
2022-08-26T13:08:58.694Z,47.26
2022-08-26T13:11:29.118Z,47.94
2022-08-26T13:13:57.827Z,48.25
2022-08-26T13:16:26.174Z,49.43
2022-08-26T13:18:55.768Z,49.53
2022-08-26T13:21:24.302Z,50.43
2022-08-26T13:23:54.274Z,50.81
2022-08-26T13:26:28.880Z,50.89
2022-08-26T13:29:02.114Z,50.36
2022-08-26T13:31:30.526Z,49.92
2022-08-26T13:33:58.192Z,49.73
2022-08-26T13:36:26.031Z,51.09
2022-08-26T13:38:55.111Z,50.43
2022-08-26T13:41:29.545Z,50.65
2022-08-26T13:43:59.455Z,50.65
2022-08-26T13:46:30.527Z,51.07
2022-08-26T13:48:58.585Z,50.46
2022-08-26T13:51:27.205Z,51.51
2022-08-26T13:53:54.961Z,51.15
2022-08-26T13:56:23.057Z,51.31
2022-08-26T13:58:53.056Z,49.70
2022-08-26T14:01:22.131Z,49.68
2022-08-26T14:03:52.941Z,48.55
2022-08-26T14:06:20.752Z,48.83
2022-08-26T14:08:49.467Z,49.46
2022-08-26T14:11:17.125Z,49.56
2022-08-26T14:13:44.741Z,49.77
2022-08-26T14:16:13.744Z,50.02
2022-08-26T14:18:47.291Z,49.91
2022-08-26T14:21:18.109Z,49.13
2022-08-26T14:23:46.352Z,48.64
2022-08-26T14:26:28.587Z,48.76
2022-08-26T14:28:59.165Z,48.28
2022-08-26T14:31:27.798Z,47.83
2022-08-26T14:33:57.536Z,47.40
2022-08-26T14:36:32.421Z,47.10
2022-08-26T14:39:04.727Z,46.81
2022-08-26T14:41:33.028Z,46.19
2022-08-26T14:44:06.265Z,46.17
2022-08-26T14:46:38.280Z,47.20
2022-08-26T14:49:10.703Z,47.58
2022-08-26T14:51:41.055Z,46.98
2022-08-26T14:54:16.297Z,45.12
2022-08-26T14:56:45.843Z,44.33
2022-08-26T14:59:13.644Z,44.34
2022-08-26T15:01:41.390Z,45.07
2022-08-26T15:04:10.892Z,46.84
2022-08-26T15:06:38.532Z,46.00
2022-08-26T15:09:06.284Z,47.32
2022-08-26T15:11:40.405Z,47.95
2022-08-26T15:14:08.668Z,51.37
2022-08-26T15:16:47.826Z,55.03
2022-08-26T15:19:17.815Z,56.26
2022-08-26T15:21:50.004Z,59.76
2022-08-26T15:24:26.535Z,59.93
2022-08-26T15:26:54.490Z,67.92
2022-08-26T15:29:23.812Z,72.41
2022-08-26T15:31:52.474Z,73.96
2022-08-26T15:34:26.994Z,77.51
2022-08-26T15:36:57.696Z,79.63
2022-08-26T15:39:25.919Z,77.31
2022-08-26T15:41:56.015Z,77.81
2022-08-26T15:44:23.855Z,75.23
2022-08-26T15:46:55.342Z,77.18
2022-08-26T15:49:29.782Z,76.55
2022-08-26T15:51:57.594Z,75.65
2022-08-26T15:54:27.565Z,73.82
2022-08-26T15:56:59.385Z,75.14
2022-08-26T15:59:27.021Z,76.58
2022-08-26T16:01:56.287Z,77.05
2022-08-26T16:04:24.177Z,78.46
2022-08-26T16:06:53.613Z,78.64
2022-08-26T16:09:24.287Z,79.95
2022-08-26T16:11:54.862Z,80.58
2022-08-26T16:14:22.980Z,80.54
2022-08-26T16:16:50.715Z,83.33
2022-08-26T16:19:18.958Z,83.75
2022-08-26T16:21:46.665Z,85.05
2022-08-26T16:24:17.502Z,87.13
2022-08-26T16:26:45.260Z,87.36
2022-08-26T16:29:16.496Z,88.11
2022-08-26T16:31:47.558Z,89.42
2022-08-26T16:34:17.262Z,89.32
2022-08-26T16:36:45.957Z,88.95
2022-08-26T16:39:16.265Z,86.95
2022-08-26T16:41:44.249Z,86.66
2022-08-26T16:44:12.559Z,85.17
2022-08-26T16:46:41.187Z,84.12
2022-08-26T16:49:15.043Z,84.72
2022-08-26T16:51:42.956Z,83.54
2022-08-26T16:54:12.701Z,82.50
2022-08-26T16:56:41.672Z,81.73
2022-08-26T16:59:12.577Z,81.74
2022-08-26T17:01:40.452Z,81.76
2022-08-26T17:04:13.859Z,82.00
2022-08-26T17:06:41.558Z,81.33
2022-08-26T17:09:09.491Z,82.73
2022-08-26T17:11:37.427Z,81.65
2022-08-26T17:14:06.977Z,80.40
2022-08-26T17:16:36.789Z,78.26
2022-08-26T17:19:07.786Z,77.17
2022-08-26T17:21:36.680Z,77.48
2022-08-26T17:24:04.560Z,78.80
2022-08-26T17:26:32.269Z,80.87
2022-08-26T17:29:01.290Z,82.28
2022-08-26T17:31:30.732Z,82.07
2022-08-26T17:33:58.490Z,81.05
2022-08-26T17:36:27.850Z,78.92
2022-08-26T17:38:56.579Z,77.51
2022-08-26T17:41:24.621Z,77.41
2022-08-26T17:43:55.160Z,78.87
2022-08-26T17:46:26.178Z,78.95
2022-08-26T17:48:56.805Z,78.29
2022-08-26T17:51:25.065Z,77.65
2022-08-26T17:53:53.577Z,79.60
2022-08-26T17:56:23.992Z,79.34
2022-08-26T17:58:56.938Z,80.03
2022-08-26T18:01:27.388Z,82.35
2022-08-26T18:04:00.463Z,82.10
2022-08-26T18:06:28.947Z,82.96
2022-08-26T18:08:56.950Z,84.30
2022-08-26T18:11:33.926Z,83.70
2022-08-26T18:14:01.999Z,81.33
2022-08-26T18:16:34.189Z,83.73
2022-08-26T18:19:03.696Z,86.20
2022-08-26T18:21:31.382Z,86.96
2022-08-26T18:23:59.100Z,86.95
2022-08-26T18:26:27.773Z,87.11
2022-08-26T18:28:55.387Z,84.87
2022-08-26T18:31:30.307Z,82.91
2022-08-26T18:33:59.837Z,83.52
2022-08-26T18:36:31.298Z,83.87
2022-08-26T18:39:01.369Z,84.07
2022-08-26T18:41:35.631Z,82.93
2022-08-26T18:44:03.585Z,81.76
2022-08-26T18:46:31.376Z,81.74
2022-08-26T18:48:59.099Z,86.14
2022-08-26T18:51:29.555Z,87.66
2022-08-26T18:53:58.686Z,86.97
2022-08-26T18:56:26.360Z,85.14
2022-08-26T18:58:54.381Z,83.23
2022-08-26T19:01:26.657Z,82.66
2022-08-26T19:03:55.197Z,81.46
2022-08-26T19:06:24.249Z,81.38
2022-08-26T19:08:54.173Z,83.54
2022-08-26T19:11:31.578Z,82.15
2022-08-26T19:14:01.422Z,82.00
2022-08-26T19:16:29.494Z,82.18
2022-08-26T19:18:58.974Z,82.12
2022-08-26T19:21:26.989Z,81.40
2022-08-26T19:23:57.201Z,81.40
2022-08-26T19:26:26.840Z,80.33
2022-08-26T19:28:57.444Z,82.10
2022-08-26T19:31:27.682Z,80.94
2022-08-26T19:33:56.713Z,80.06
2022-08-26T19:36:24.999Z,79.79
2022-08-26T19:38:52.992Z,80.80
2022-08-26T19:41:21.482Z,84.40
2022-08-26T19:43:50.552Z,85.74
2022-08-26T19:46:19.951Z,85.64
2022-08-26T19:48:47.988Z,81.57
2022-08-26T19:51:17.012Z,79.44
2022-08-26T19:53:45.252Z,78.67
2022-08-26T19:56:13.029Z,77.21
2022-08-26T19:58:40.686Z,76.92
2022-08-26T20:01:10.360Z,78.66
2022-08-26T20:03:40.935Z,78.56
2022-08-26T20:06:09.390Z,78.08
2022-08-26T20:08:37.747Z,79.66
2022-08-26T20:11:20.072Z,81.90
2022-08-26T20:13:48.519Z,80.39
2022-08-26T20:16:20.825Z,80.43
2022-08-26T20:19:06.006Z,81.23
2022-08-26T20:21:35.921Z,81.68
2022-08-26T20:24:10.550Z,79.57
2022-08-26T20:26:41.573Z,79.84
2022-08-26T20:29:09.679Z,79.34
2022-08-26T20:31:41.073Z,80.11
2022-08-26T20:34:11.121Z,78.93
2022-08-26T20:36:39.232Z,78.26
2022-08-26T20:39:07.375Z,80.04
2022-08-26T20:41:35.582Z,81.13
2022-08-26T20:44:03.649Z,81.38
2022-08-26T20:46:31.670Z,81.99
2022-08-26T20:49:03.581Z,83.57
2022-08-26T20:51:33.699Z,86.56
2022-08-26T20:54:01.478Z,87.94
2022-08-26T20:56:29.243Z,87.66
2022-08-26T20:58:58.700Z,85.02
2022-08-26T21:01:31.053Z,81.60
2022-08-26T21:03:59.081Z,81.68
2022-08-26T21:06:32.835Z,80.63
2022-08-26T21:09:03.969Z,82.42
2022-08-26T21:11:31.788Z,80.93
2022-08-26T21:14:16.650Z,82.73
2022-08-26T21:16:45.216Z,84.03
2022-08-26T21:19:17.717Z,81.46
2022-08-26T21:21:46.857Z,80.87
2022-08-26T21:24:17.080Z,82.49
2022-08-26T21:26:46.322Z,81.13
2022-08-26T21:29:16.153Z,80.12
2022-08-26T21:31:46.379Z,79.21
2022-08-26T21:34:14.711Z,77.71
2022-08-26T21:36:44.801Z,79.18
2022-08-26T21:39:16.346Z,80.05
2022-08-26T21:41:46.880Z,78.91
2022-08-26T21:44:14.903Z,79.25
2022-08-26T21:46:42.743Z,80.61
2022-08-26T21:49:11.826Z,81.63
2022-08-26T21:51:41.100Z,81.35
2022-08-26T21:54:11.319Z,82.87
2022-08-26T21:56:41.401Z,82.23
2022-08-26T21:59:09.386Z,81.25
2022-08-26T22:01:39.326Z,80.55
2022-08-26T22:04:08.032Z,80.86
2022-08-26T22:06:37.437Z,83.69
2022-08-26T22:09:05.443Z,83.64
2022-08-26T22:11:35.408Z,82.37
2022-08-26T22:14:20.541Z,80.61
2022-08-26T22:16:50.522Z,81.67
2022-08-26T22:19:20.029Z,80.80
2022-08-26T22:21:49.501Z,81.70
2022-08-26T22:24:17.378Z,84.44
2022-08-26T22:26:45.411Z,84.75
2022-08-26T22:29:13.469Z,84.68
2022-08-26T22:31:42.091Z,86.20
2022-08-26T22:34:12.034Z,86.70
2022-08-26T22:36:43.654Z,90.90
2022-08-26T22:39:12.386Z,88.20
2022-08-26T22:41:40.886Z,91.56
2022-08-26T22:44:08.793Z,91.29
2022-08-26T22:46:38.418Z,91.72
2022-08-26T22:49:06.484Z,91.44
2022-08-26T22:51:35.749Z,92.67
2022-08-26T22:54:09.689Z,92.06
2022-08-26T22:56:40.224Z,92.59
2022-08-26T22:59:08.670Z,92.83
2022-08-26T23:01:37.338Z,91.09
2022-08-26T23:04:06.370Z,93.01
2022-08-26T23:06:36.811Z,91.80
2022-08-26T23:09:05.141Z,91.25
2022-08-26T23:11:33.092Z,90.84
2022-08-26T23:14:02.293Z,95.53
2022-08-26T23:16:39.339Z,94.07
2022-08-26T23:19:07.469Z,93.79
2022-08-26T23:21:36.608Z,94.95
2022-08-26T23:24:04.900Z,95.52
2022-08-26T23:26:33.163Z,96.19
2022-08-26T23:29:00.852Z,96.34
2022-08-26T23:31:28.567Z,98.73
2022-08-26T23:34:13.811Z,98.25
2022-08-26T23:36:44.114Z,99.76
2022-08-26T23:39:14.784Z,99.21
2022-08-26T23:41:49.389Z,100.00
2022-08-26T23:44:17.260Z,98.45
2022-08-26T23:46:44.916Z,99.00
2022-08-26T23:49:12.827Z,98.06
2022-08-26T23:51:58.057Z,96.16
2022-08-26T23:54:29.276Z,96.15
2022-08-26T23:56:56.939Z,92.37
2022-08-26T23:59:24.589Z,93.76
